Time;durP1;ratioP1;P1;durP2;ratioP2;P2;SDS_P1;SDS_P2;PMS_P1;PMS_P2;Temp;Humidity;BMP_temperature;BMP_pressure;BME280_temperature;BME280_humidity;BME280_pressure;Samples;Min_cycle;Max_cycle;Signal;HPM_P1;HPM_P2
2022/07/17 00:01:00;;;;;;;2.93;1.53;;;22.60;50.80;;;;;;5088171;28;20169;-94
2022/07/17 00:03:26;;;;;;;2.40;1.97;;;22.60;50.90;;;;;;5087053;28;20210;-93
2022/07/17 00:05:52;;;;;;;2.03;1.70;;;22.60;50.90;;;;;;5084634;28;20197;-93
2022/07/17 00:08:17;;;;;;;2.90;1.80;;;22.60;50.90;;;;;;5082590;28;20189;-91
2022/07/17 00:10:43;;;;;;;2.30;1.80;;;22.60;50.90;;;;;;5077268;28;20276;-91
2022/07/17 00:13:10;;;;;;;2.97;1.87;;;22.50;50.90;;;;;;5078022;28;20209;-91
2022/07/17 00:15:36;;;;;;;2.93;1.80;;;22.50;50.90;;;;;;5077798;28;20176;-91
2022/07/17 00:18:02;;;;;;;3.53;1.80;;;22.50;51.00;;;;;;5077053;28;20185;-91
2022/07/17 00:20:29;;;;;;;1.97;1.73;;;22.50;51.00;;;;;;5078490;28;20274;-91
2022/07/17 00:22:56;;;;;;;4.07;1.90;;;22.50;51.00;;;;;;5077231;28;20282;-91
2022/07/17 00:25:22;;;;;;;5.37;1.93;;;22.50;51.00;;;;;;5078647;28;20177;-91
2022/07/17 00:27:48;;;;;;;5.17;2.00;;;22.40;51.00;;;;;;5078041;28;20299;-92
2022/07/17 00:30:14;;;;;;;5.03;1.80;;;22.50;51.10;;;;;;5078342;28;20266;-91
2022/07/17 00:32:41;;;;;;;2.60;1.80;;;22.40;51.00;;;;;;5078014;28;20306;-91
2022/07/17 00:35:07;;;;;;;3.03;1.90;;;22.20;51.30;;;;;;5077403;28;20226;-91
2022/07/17 00:37:44;;;;;;;3.67;2.17;;;22.20;51.40;;;;;;5077908;28;20189;-91
2022/07/17 00:40:14;;;;;;;3.03;1.60;;;22.20;51.40;;;;;;5078250;28;20551;-91
2022/07/17 00:42:41;;;;;;;2.07;1.60;;;22.30;51.40;;;;;;5078281;28;20298;-92
2022/07/17 00:45:08;;;;;;;2.40;1.70;;;22.30;51.40;;;;;;5082971;28;20615;-93
2022/07/17 00:47:51;;;;;;;2.77;1.90;;;22.30;51.30;;;;;;5084331;28;20534;-93
2022/07/17 00:50:16;;;;;;;2.20;1.80;;;22.30;51.40;;;;;;5085166;28;20185;-93
2022/07/17 00:52:42;;;;;;;3.10;1.93;;;22.30;51.40;;;;;;5084278;28;20203;-93
2022/07/17 00:55:10;;;;;;;5.23;2.00;;;22.30;51.40;;;;;;5083411;28;20170;-93
2022/07/17 00:57:39;;;;;;;2.27;1.97;;;22.30;51.40;;;;;;5084097;28;20549;-94
2022/07/17 01:00:09;;;;;;;3.60;2.00;;;22.30;51.40;;;;;;5083755;28;20207;-94
2022/07/17 01:02:36;;;;;;;4.30;2.27;;;22.30;51.50;;;;;;5084003;28;20178;-94
2022/07/17 01:05:02;;;;;;;3.03;1.80;;;22.30;51.50;;;;;;5082190;28;20204;-94
2022/07/17 01:07:29;;;;;;;2.63;1.80;;;22.20;51.60;;;;;;5082713;28;20181;-94
2022/07/17 01:09:55;;;;;;;2.70;2.00;;;22.20;51.60;;;;;;5082110;28;20182;-93
2022/07/17 01:12:23;;;;;;;2.40;1.93;;;22.20;51.70;;;;;;5084155;28;20209;-91
2022/07/17 01:14:50;;;;;;;2.97;1.80;;;22.20;51.70;;;;;;5080997;28;20268;-92
2022/07/17 01:17:17;;;;;;;1.70;1.60;;;22.10;51.90;;;;;;5077483;28;20178;-90
2022/07/17 01:19:43;;;;;;;3.70;1.87;;;21.90;52.20;;;;;;5077597;28;20548;-90
2022/07/17 01:22:09;;;;;;;3.00;1.60;;;21.80;52.50;;;;;;5077866;28;20189;-90
2022/07/17 01:24:39;;;;;;;2.77;2.00;;;21.80;52.50;;;;;;5078176;28;20176;-90
2022/07/17 01:27:05;;;;;;;2.80;2.10;;;21.90;52.40;;;;;;5078240;28;20293;-89
2022/07/17 01:29:31;;;;;;;2.33;1.80;;;21.90;52.40;;;;;;5078518;28;20522;-90
2022/07/17 01:31:57;;;;;;;2.87;2.13;;;21.90;52.40;;;;;;5082031;28;20231;-90
2022/07/17 01:34:23;;;;;;;2.40;1.67;;;21.90;52.40;;;;;;5082240;28;20204;-90
2022/07/17 01:36:49;;;;;;;2.17;1.70;;;21.90;52.30;;;;;;5081874;28;20215;-90
2022/07/17 01:39:15;;;;;;;2.20;1.60;;;21.90;52.30;;;;;;5081820;28;20176;-90
2022/07/17 01:41:42;;;;;;;2.63;1.83;;;22.00;52.30;;;;;;5081457;28;20234;-90
2022/07/17 01:44:08;;;;;;;3.10;1.83;;;21.90;52.30;;;;;;5082307;28;20174;-90
2022/07/17 01:46:34;;;;;;;2.87;1.80;;;21.90;52.30;;;;;;5081285;28;20181;-90
2022/07/17 01:49:03;;;;;;;2.80;1.70;;;21.90;52.30;;;;;;5080385;28;20553;-90
2022/07/17 01:51:29;;;;;;;2.33;1.60;;;21.90;52.30;;;;;;5080304;28;20173;-91
2022/07/17 01:53:54;;;;;;;1.70;1.60;;;21.90;52.40;;;;;;5098344;28;20468;-91
2022/07/17 01:56:21;;;;;;;2.73;1.90;;;21.90;52.80;;;;;;5080684;28;20177;-91
2022/07/17 01:58:47;;;;;;;3.77;1.90;;;21.90;52.40;;;;;;5080767;28;20489;-92
2022/07/17 02:01:13;;;;;;;2.70;1.73;;;21.80;52.50;;;;;;5080491;28;20170;-91
2022/07/17 02:03:39;;;;;;;3.70;1.90;;;21.80;52.60;;;;;;5080324;28;20190;-91
2022/07/17 02:06:04;;;;;;;4.17;2.03;;;21.80;52.70;;;;;;5080003;28;20566;-91
2022/07/17 02:08:30;;;;;;;2.07;1.77;;;21.80;52.70;;;;;;5080758;28;20177;-91
2022/07/17 02:10:56;;;;;;;3.47;1.83;;;21.80;52.70;;;;;;5080052;28;20181;-91
2022/07/17 02:13:22;;;;;;;3.13;1.70;;;21.80;52.70;;;;;;5081113;28;20208;-91
2022/07/17 02:15:47;;;;;;;2.53;1.80;;;21.80;52.70;;;;;;5080025;28;20171;-91
2022/07/17 02:18:13;;;;;;;3.13;1.60;;;21.80;52.70;;;;;;5080528;28;20269;-91
2022/07/17 02:20:41;;;;;;;3.23;1.70;;;21.70;52.70;;;;;;5080074;28;20180;-91
2022/07/17 02:23:07;;;;;;;1.50;1.40;;;21.60;53.10;;;;;;5081629;28;20218;-89
2022/07/17 02:25:33;;;;;;;2.10;1.70;;;21.50;53.10;;;;;;5080663;28;20187;-90
2022/07/17 02:27:59;;;;;;;2.23;1.73;;;21.60;53.10;;;;;;5081224;28;20205;-90
2022/07/17 02:30:24;;;;;;;1.60;1.50;;;21.60;53.10;;;;;;5080687;28;20171;-90
2022/07/17 02:32:50;;;;;;;2.63;1.50;;;21.60;53.00;;;;;;5081339;28;20261;-90
2022/07/17 02:35:16;;;;;;;2.20;1.80;;;21.60;53.00;;;;;;5081087;28;20193;-90
2022/07/17 02:37:43;;;;;;;5.03;1.80;;;21.60;53.00;;;;;;5081263;28;20175;-90
2022/07/17 02:40:09;;;;;;;2.97;1.80;;;21.60;53.00;;;;;;5098371;28;20181;-90
2022/07/17 02:42:35;;;;;;;2.27;1.70;;;21.60;53.10;;;;;;5080219;28;20176;-90
2022/07/17 02:45:01;;;;;;;6.00;2.03;;;21.50;53.10;;;;;;5081062;28;20255;-90
2022/07/17 02:47:30;;;;;;;2.20;1.77;;;21.50;53.30;;;;;;5080839;28;20265;-90
2022/07/17 02:49:56;;;;;;;2.07;1.67;;;21.40;53.30;;;;;;5081056;28;20230;-90
2022/07/17 02:52:23;;;;;;;2.27;1.60;;;21.40;53.30;;;;;;5080689;28;20205;-90
2022/07/17 02:54:49;;;;;;;2.87;1.80;;;21.40;53.30;;;;;;5081288;28;20171;-90
2022/07/17 02:57:15;;;;;;;3.30;1.87;;;21.40;53.50;;;;;;5099802;28;20171;-91
2022/07/17 02:59:41;;;;;;;2.37;1.77;;;21.40;53.50;;;;;;5079716;28;20562;-91
2022/07/17 03:02:07;;;;;;;;;;;21.30;53.90;;;;;;5080209;28;20162;-91
2022/07/17 03:04:33;;;;;;;;;;;21.10;54.40;;;;;;5079973;28;20189;-91
2022/07/17 03:06:59;;;;;;;;;;;20.90;54.90;;;;;;5097992;28;19918;-90
2022/07/17 03:09:24;;;;;;;;;;;20.90;54.80;;;;;;5079976;28;19904;-91
2022/07/17 03:11:50;;;;;;;;;;;21.00;54.60;;;;;;5080322;28;20152;-91
2022/07/17 03:14:16;;;;;;;;;;;21.00;54.40;;;;;;5080095;28;19999;-91
2022/07/17 03:16:41;;;;;;;;;;;21.00;54.50;;;;;;5097627;28;19912;-91
2022/07/17 03:19:07;;;;;;;;;;;20.80;54.70;;;;;;5080145;28;19904;-90
2022/07/17 03:21:33;;;;;;;2.37;1.90;;;20.90;54.60;;;;;;5079635;28;20028;-91
2022/07/17 03:23:59;;;;;;;2.13;1.80;;;21.00;54.50;;;;;;5079606;28;20527;-91
2022/07/17 03:26:24;;;;;;;2.07;1.73;;;21.00;54.30;;;;;;5079223;28;20176;-91
2022/07/17 03:28:50;;;;;;;1.60;1.50;;;21.00;54.50;;;;;;5079394;28;20251;-89
2022/07/17 03:31:16;;;;;;;2.73;1.70;;;20.80;54.70;;;;;;5079636;28;20168;-92
2022/07/17 03:33:42;;;;;;;3.67;1.90;;;20.70;55.20;;;;;;5079003;28;20204;-92
2022/07/17 03:36:08;;;;;;;3.00;1.63;;;20.70;55.20;;;;;;5078696;28;20255;-92
2022/07/17 03:38:33;;;;;;;4.17;1.80;;;20.70;55.00;;;;;;5079300;28;20167;-91
2022/07/17 03:40:59;;;;;;;2.53;1.60;;;20.80;55.00;;;;;;5079734;28;20167;-91
2022/07/17 03:43:25;;;;;;;2.47;1.80;;;20.80;54.90;;;;;;5079085;28;20246;-92
2022/07/17 03:45:51;;;;;;;2.53;1.70;;;20.80;54.70;;;;;;5078995;28;20187;-92
2022/07/17 03:48:18;;;;;;;3.80;1.70;;;20.90;54.50;;;;;;5079146;28;20270;-91
2022/07/17 03:50:44;;;;;;;2.23;1.60;;;20.90;54.40;;;;;;5079339;28;20231;-91
2022/07/17 03:53:09;;;;;;;2.73;1.90;;;20.90;54.20;;;;;;5078080;28;20226;-92
2022/07/17 03:55:35;;;;;;;2.77;2.00;;;20.90;54.20;;;;;;5079032;28;20163;-92
2022/07/17 03:58:01;;;;;;;2.40;1.73;;;20.80;54.30;;;;;;5096516;28;20174;-92
2022/07/17 04:00:27;;;;;;;3.43;1.80;;;20.70;54.60;;;;;;5079609;28;20203;-91
2022/07/17 04:02:53;;;;;;;3.43;2.03;;;20.50;55.40;;;;;;5079776;28;20235;-89
2022/07/17 04:05:18;;;;;;;2.63;1.70;;;20.60;55.00;;;;;;5078881;28;20293;-90
2022/07/17 04:07:44;;;;;;;2.40;1.87;;;20.70;54.80;;;;;;5079479;28;20175;-90
2022/07/17 04:10:12;;;;;;;3.17;1.60;;;20.70;54.60;;;;;;5078920;28;20174;-91
2022/07/17 04:12:39;;;;;;;4.30;1.93;;;20.70;54.50;;;;;;5079100;28;20317;-90
2022/07/17 04:15:06;;;;;;;2.80;1.77;;;20.70;54.40;;;;;;5079228;28;20182;-90
2022/07/17 04:17:32;;;;;;;2.97;2.07;;;20.60;54.80;;;;;;5079903;28;20271;-89
2022/07/17 04:19:58;;;;;;;3.50;1.80;;;20.50;55.00;;;;;;5079567;28;20257;-89
2022/07/17 04:22:24;;;;;;;2.70;1.80;;;20.50;55.30;;;;;;5079621;28;20172;-90
2022/07/17 04:24:52;;;;;;;1.63;1.50;;;20.50;55.20;;;;;;5096139;28;20185;-89
2022/07/17 04:27:18;;;;;;;1.97;1.70;;;20.60;55.20;;;;;;5079502;28;20172;-90
2022/07/17 04:29:44;;;;;;;2.87;1.70;;;20.60;55.20;;;;;;5078894;28;20447;-90
2022/07/17 04:32:10;;;;;;;2.60;1.93;;;20.70;55.10;;;;;;5078858;28;20473;-90
2022/07/17 04:34:36;;;;;;;3.90;1.60;;;20.70;55.10;;;;;;5079400;28;20547;-90
2022/07/17 04:37:03;;;;;;;3.60;2.10;;;20.60;55.00;;;;;;5079075;28;20176;-91
2022/07/17 04:39:30;;;;;;;3.13;1.70;;;20.60;55.20;;;;;;5078527;28;20181;-92
2022/07/17 04:41:56;;;;;;;2.53;1.80;;;20.60;55.30;;;;;;5078195;28;20175;-92
2022/07/17 04:44:21;;;;;;;3.70;2.10;;;20.70;55.00;;;;;;5078073;28;20266;-92
2022/07/17 04:46:47;;;;;;;1.90;1.60;;;20.80;54.90;;;;;;5077654;28;20274;-92
2022/07/17 04:49:13;;;;;;;2.17;1.83;;;20.90;54.70;;;;;;5078187;28;20210;-92
2022/07/17 04:51:39;;;;;;;2.63;1.80;;;20.90;54.60;;;;;;5095591;28;20179;-92
2022/07/17 04:54:05;;;;;;;1.97;1.70;;;21.00;54.60;;;;;;5094489;28;20177;-92
2022/07/17 04:56:31;;;;;;;3.80;1.90;;;21.00;54.80;;;;;;5077688;28;20237;-92
2022/07/17 04:58:57;;;;;;;2.37;1.90;;;21.00;54.50;;;;;;5076375;28;20212;-92
2022/07/17 05:01:22;;;;;;;2.07;1.73;;;21.10;54.50;;;;;;5077170;28;20268;-92
2022/07/17 05:03:48;;;;;;;2.13;1.73;;;21.10;54.40;;;;;;5077210;28;20274;-92
2022/07/17 05:06:14;;;;;;;3.73;1.90;;;21.10;54.50;;;;;;5080716;28;20167;-92
2022/07/17 05:08:40;;;;;;;3.00;1.90;;;21.20;54.30;;;;;;5082136;28;20178;-92
2022/07/17 05:11:06;;;;;;;1.97;1.70;;;21.20;54.40;;;;;;5080874;28;20186;-92
2022/07/17 05:13:31;;;;;;;3.93;1.90;;;21.30;54.20;;;;;;5081106;28;20260;-92
2022/07/17 05:15:57;;;;;;;1.83;1.73;;;21.30;53.90;;;;;;5098636;28;20164;-92
2022/07/17 05:18:23;;;;;;;2.10;1.70;;;21.40;53.80;;;;;;5080794;28;20184;-92
2022/07/17 05:20:49;;;;;;;2.10;1.90;;;21.40;53.80;;;;;;5081257;28;20167;-92
2022/07/17 05:23:14;;;;;;;3.73;1.70;;;21.50;53.70;;;;;;5081246;28;20567;-92
2022/07/17 05:25:40;;;;;;;2.90;1.60;;;21.60;53.50;;;;;;5081116;28;20181;-92
2022/07/17 05:28:06;;;;;;;2.67;1.87;;;21.60;53.70;;;;;;5081038;28;20255;-92
2022/07/17 05:30:32;;;;;;;3.00;1.60;;;21.60;53.70;;;;;;5081196;28;20180;-92
2022/07/17 05:32:57;;;;;;;2.47;1.80;;;21.70;53.40;;;;;;5081102;28;20209;-92
2022/07/17 05:35:23;;;;;;;2.57;1.77;;;21.80;54.10;;;;;;5081234;28;20194;-92
2022/07/17 05:37:49;;;;;;;2.73;1.90;;;21.90;54.50;;;;;;5081100;28;20233;-92
2022/07/17 05:40:15;;;;;;;2.60;1.90;;;22.00;54.10;;;;;;5080953;28;20181;-93
2022/07/17 05:42:41;;;;;;;2.60;1.50;;;22.00;54.30;;;;;;5083250;28;20236;-93
2022/07/17 05:45:07;;;;;;;3.77;2.10;;;22.10;52.80;;;;;;5092348;28;20186;-93
2022/07/17 05:47:33;;;;;;;2.83;1.93;;;22.20;53.20;;;;;;5090841;28;20177;-94
2022/07/17 05:49:59;;;;;;;2.10;1.77;;;22.30;53.70;;;;;;5092105;28;20178;-94
2022/07/17 05:52:24;;;;;;;2.53;1.70;;;22.40;53.00;;;;;;5091184;28;20207;-94
2022/07/17 05:54:50;;;;;;;2.80;1.80;;;22.50;52.30;;;;;;5091230;28;20277;-94
2022/07/17 05:57:16;;;;;;;2.80;1.60;;;22.60;52.00;;;;;;5091418;28;20177;-94
2022/07/17 05:59:42;;;;;;;2.40;1.80;;;22.60;51.80;;;;;;5090484;28;20221;-94
2022/07/17 06:02:08;;;;;;;2.13;1.80;;;22.80;51.40;;;;;;5092265;28;20254;-93
2022/07/17 06:04:35;;;;;;;4.13;2.00;;;22.90;51.20;;;;;;5091520;28;20224;-93
2022/07/17 06:07:01;;;;;;;2.10;1.63;;;23.00;51.40;;;;;;5092008;28;20190;-93
2022/07/17 06:09:27;;;;;;;2.87;1.80;;;23.10;50.80;;;;;;5091480;28;20179;-94
2022/07/17 06:11:52;;;;;;;2.80;1.80;;;23.20;50.60;;;;;;5091904;28;20202;-94
2022/07/17 06:14:20;;;;;;;2.23;1.50;;;23.40;50.50;;;;;;5094316;28;20200;-94
2022/07/17 06:16:46;;;;;;;2.17;1.70;;;23.50;50.30;;;;;;5080698;28;20183;-92
2022/07/17 06:19:12;;;;;;;1.83;1.50;;;23.60;50.20;;;;;;5080471;28;20236;-92
2022/07/17 06:21:37;;;;;;;1.60;1.50;;;23.70;50.00;;;;;;5080229;28;20179;-91
2022/07/17 06:24:04;;;;;;;2.33;1.50;;;23.90;49.90;;;;;;5080029;28;20174;-92
2022/07/17 06:26:29;;;;;;;2.07;1.70;;;24.00;49.60;;;;;;5079483;28;20175;-92
2022/07/17 06:28:55;;;;;;;2.07;1.80;;;24.10;49.50;;;;;;5079777;28;20174;-92
2022/07/17 06:31:22;;;;;;;1.77;1.50;;;24.30;49.30;;;;;;5080501;28;20182;-92
2022/07/17 06:33:48;;;;;;;2.77;1.57;;;24.40;49.20;;;;;;5079085;28;20498;-92
2022/07/17 06:36:13;;;;;;;1.80;1.47;;;24.50;49.00;;;;;;5079712;28;20493;-92
2022/07/17 06:38:39;;;;;;;2.70;1.50;;;24.60;48.90;;;;;;5078478;28;20580;-92
2022/07/17 06:41:05;;;;;;;2.10;1.60;;;24.60;48.80;;;;;;5078771;28;20175;-92
2022/07/17 06:43:31;;;;;;;1.70;1.60;;;24.80;48.80;;;;;;5078619;28;20605;-92
2022/07/17 06:45:57;;;;;;;3.07;1.80;;;24.90;48.50;;;;;;5079246;28;20185;-92
2022/07/17 06:48:23;;;;;;;1.60;1.50;;;25.00;48.50;;;;;;5079188;28;20190;-92
2022/07/17 06:50:49;;;;;;;2.10;1.67;;;25.10;48.20;;;;;;5078562;28;20556;-91
2022/07/17 06:53:16;;;;;;;1.70;1.40;;;25.20;48.10;;;;;;5079295;28;20213;-92
2022/07/17 06:55:42;;;;;;;2.03;1.57;;;25.40;48.10;;;;;;5079093;28;20647;-92
2022/07/17 06:58:08;;;;;;;2.47;1.53;;;25.60;47.80;;;;;;5096865;28;20174;-92
2022/07/17 07:00:33;;;;;;;1.63;1.50;;;25.70;47.70;;;;;;5078956;28;20171;-92
2022/07/17 07:03:00;;;;;;;3.07;1.70;;;25.90;47.70;;;;;;5079219;28;20221;-92
2022/07/17 07:05:26;;;;;;;1.67;1.50;;;26.00;47.50;;;;;;5078846;28;20277;-92
2022/07/17 07:07:51;;;;;;;2.30;1.83;;;26.30;47.40;;;;;;5078895;28;20474;-92
2022/07/17 07:10:17;;;;;;;3.67;1.60;;;26.60;47.20;;;;;;5077970;28;20175;-92
2022/07/17 07:12:43;;;;;;;4.03;1.60;;;26.80;46.90;;;;;;5079285;28;20645;-92
2022/07/17 07:15:09;;;;;;;2.83;1.60;;;27.50;46.60;;;;;;5078993;28;20174;-92
2022/07/17 07:17:36;;;;;;;1.70;1.60;;;28.20;46.00;;;;;;5078127;28;20475;-93
2022/07/17 07:20:04;;;;;;;4.30;1.50;;;28.70;45.50;;;;;;5078935;28;20209;-92
2022/07/17 07:22:31;;;;;;;4.97;1.60;;;29.30;45.00;;;;;;5078115;28;20178;-92
2022/07/17 07:24:56;;;;;;;2.37;1.70;;;29.60;44.60;;;;;;5078352;28;20248;-92
2022/07/17 07:27:22;;;;;;;3.13;1.40;;;30.00;44.20;;;;;;5077795;28;20179;-92
2022/07/17 07:29:49;;;;;;;3.50;1.80;;;30.30;43.90;;;;;;5077030;28;20469;-92
2022/07/17 07:32:15;;;;;;;2.30;1.70;;;30.60;43.50;;;;;;5077430;28;20291;-92
2022/07/17 07:34:41;;;;;;;3.10;1.60;;;30.90;43.20;;;;;;5095669;28;20225;-92
2022/07/17 07:37:07;;;;;;;4.53;1.77;;;31.10;43.00;;;;;;5077187;28;20544;-92
2022/07/17 07:39:33;;;;;;;3.77;1.70;;;31.30;42.80;;;;;;5077570;28;20206;-92
2022/07/17 07:41:59;;;;;;;4.20;1.50;;;31.50;42.50;;;;;;5077685;28;20174;-92
2022/07/17 07:44:25;;;;;;;3.70;1.80;;;31.80;42.40;;;;;;5077798;28;20170;-92
2022/07/17 07:46:51;;;;;;;2.40;1.80;;;32.10;42.20;;;;;;5077294;28;20214;-92
2022/07/17 07:49:17;;;;;;;3.40;1.67;;;32.20;41.90;;;;;;5077051;28;20512;-92
2022/07/17 07:51:43;;;;;;;2.07;1.60;;;32.30;41.80;;;;;;5076910;28;20175;-92
2022/07/17 07:54:09;;;;;;;3.37;1.70;;;32.50;41.60;;;;;;5077214;28;20468;-92
2022/07/17 07:56:36;;;;;;;4.77;1.60;;;32.60;41.50;;;;;;5076756;28;20195;-92
2022/07/17 07:59:02;;;;;;;2.50;1.55;;;32.60;41.40;;;;;;5077115;28;20203;-92
2022/07/17 08:01:28;;;;;;;2.47;1.70;;;32.50;41.50;;;;;;5077019;28;20175;-92
2022/07/17 08:03:54;;;;;;;3.75;1.70;;;32.60;41.50;;;;;;5076797;28;20175;-92
2022/07/17 08:06:19;;;;;;;2.38;1.70;;;32.80;41.20;;;;;;5076517;28;20302;-92
2022/07/17 08:08:45;;;;;;;3.00;1.70;;;33.00;41.10;;;;;;5075534;28;20181;-92
2022/07/17 08:11:12;;;;;;;4.60;1.80;;;33.20;41.00;;;;;;5076346;28;20171;-92
2022/07/17 08:13:38;;;;;;;3.97;1.83;;;33.30;40.90;;;;;;5075792;28;20199;-93
2022/07/17 08:16:04;;;;;;;2.50;1.67;;;33.40;40.70;;;;;;5076073;28;20255;-93
2022/07/17 08:18:30;;;;;;;4.32;1.90;;;33.40;40.60;;;;;;5074347;28;20261;-92
2022/07/17 08:20:56;;;;;;;5.78;1.92;;;33.40;40.70;;;;;;5074315;28;20274;-91
2022/07/17 08:23:21;;;;;;;2.47;1.65;;;33.40;40.70;;;;;;5092311;28;20167;-93
2022/07/17 08:25:47;;;;;;;4.97;2.10;;;33.60;40.50;;;;;;5075223;28;20175;-92
2022/07/17 08:28:14;;;;;;;3.95;1.70;;;33.50;40.50;;;;;;5075785;28;20556;-92
2022/07/17 08:30:40;;;;;;;2.83;2.00;;;33.60;40.50;;;;;;5074233;28;20182;-92
2022/07/17 08:33:08;;;;;;;8.50;2.00;;;33.60;40.60;;;;;;5075136;28;20199;-92
2022/07/17 08:35:35;;;;;;;7.65;2.28;;;33.70;40.50;;;;;;5075458;28;20174;-92
2022/07/17 08:38:02;;;;;;;1.88;1.65;;;33.70;40.50;;;;;;5093713;28;20167;-90
2022/07/17 08:40:30;;;;;;;4.10;1.88;;;33.80;40.50;;;;;;5077108;28;20240;-90
2022/07/17 08:42:58;;;;;;;3.55;1.85;;;33.90;40.30;;;;;;5078241;28;20564;-90
2022/07/17 08:45:24;;;;;;;2.65;1.52;;;33.80;40.30;;;;;;5078394;28;20183;-91
2022/07/17 08:47:52;;;;;;;3.60;1.70;;;33.80;40.30;;;;;;5080039;28;20552;-91
2022/07/17 08:50:27;;;;;;;2.70;1.60;;;33.60;40.30;;;;;;5078001;28;20178;-91
2022/07/17 08:52:53;;;;;;;2.53;1.80;;;33.70;40.40;;;;;;5077317;28;20304;-91
2022/07/17 08:55:19;;;;;;;4.05;1.73;;;33.80;40.40;;;;;;5077611;28;20282;-91
2022/07/17 08:57:46;;;;;;;3.58;1.70;;;33.90;40.30;;;;;;5077506;28;20175;-90
2022/07/17 09:00:15;;;;;;;3.30;1.73;;;33.90;40.20;;;;;;5077679;28;20529;-91
2022/07/17 09:02:58;;;;;;;2.67;1.50;;;33.90;40.30;;;;;;5095254;28;20173;-92
2022/07/17 09:05:33;;;;;;;2.45;1.80;;;34.00;40.30;;;;;;5035773;28;1220502;-92
2022/07/17 09:07:59;;;;;;;3.42;1.70;;;34.00;40.20;;;;;;5078777;28;20239;-92
2022/07/17 09:10:41;;;;;;;2.60;1.60;;;34.00;40.30;;;;;;5079142;28;20170;-92
2022/07/17 09:13:26;;;;;;;3.17;1.70;;;33.80;40.30;;;;;;5078593;28;20206;-91
2022/07/17 09:15:55;;;;;;;3.85;1.90;;;33.40;40.50;;;;;;5078958;28;20438;-92
2022/07/17 09:18:23;;;;;;;5.07;1.67;;;33.10;40.70;;;;;;5081734;28;20433;-91
2022/07/17 09:20:58;;;;;;;3.15;1.63;;;32.60;41.00;;;;;;5085592;28;20256;-91
2022/07/17 09:23:27;;;;;;;3.92;1.95;;;32.10;41.30;;;;;;5078478;28;20170;-92
2022/07/17 09:25:55;;;;;;;5.40;1.80;;;31.70;41.60;;;;;;5078733;28;20179;-92
2022/07/17 09:28:22;;;;;;;2.65;1.52;;;31.40;41.90;;;;;;5078999;28;20274;-92
2022/07/17 09:30:51;;;;;;;3.33;1.90;;;31.10;42.10;;;;;;5095822;28;20690;-92
2022/07/17 09:33:20;;;;;;;2.47;1.60;;;30.80;42.30;;;;;;5095376;28;20217;-91
2022/07/17 09:35:54;;;;;;;3.47;1.90;;;30.60;42.70;;;;;;5077976;28;20222;-92
2022/07/17 09:38:30;;;;;;;5.70;2.10;;;30.40;42.80;;;;;;5076894;28;20166;-91
2022/07/17 09:41:15;;;;;;;3.97;1.60;;;30.30;42.90;;;;;;5078250;28;20166;-91
2022/07/17 09:43:47;;;;;;;2.70;1.70;;;30.20;43.10;;;;;;5077217;28;20167;-91
2022/07/17 09:46:45;;;;;;;5.43;1.70;;;30.10;43.20;;;;;;5077714;28;20190;-91
2022/07/17 09:49:13;;;;;;;2.20;1.70;;;30.00;43.20;;;;;;5030133;28;20612;-92
2022/07/17 09:51:40;;;;;;;4.43;1.50;;;29.90;43.30;;;;;;5077238;28;20415;-91
2022/07/17 09:54:08;;;;;;;6.22;1.83;;;29.90;43.40;;;;;;5078080;28;20454;-91
2022/07/17 09:56:37;;;;;;;3.70;1.50;;;29.90;43.40;;;;;;5077003;28;20171;-92
2022/07/17 09:59:12;;;;;;;3.42;1.80;;;29.90;43.50;;;;;;5077066;28;20175;-92
2022/07/17 10:01:43;;;;;;;2.63;1.50;;;29.80;43.50;;;;;;5075893;28;20171;-93
2022/07/17 10:04:10;;;;;;;5.20;2.00;;;29.80;43.60;;;;;;5075888;28;20590;-92
2022/07/17 10:06:36;;;;;;;4.75;1.60;;;29.80;43.70;;;;;;5077310;28;20185;-92
2022/07/17 10:09:03;;;;;;;4.00;1.83;;;29.70;43.70;;;;;;5077410;28;20171;-92
2022/07/17 10:11:33;;;;;;;5.25;1.88;;;29.70;43.90;;;;;;5078721;28;20262;-92
2022/07/17 10:14:05;;;;;;;6.75;1.80;;;29.60;43.90;;;;;;5077743;28;20232;-92
2022/07/17 10:16:33;;;;;;;4.88;1.90;;;29.60;43.90;;;;;;5075882;28;20167;-93
2022/07/17 10:19:02;;;;;;;4.95;1.55;;;29.60;43.90;;;;;;5076087;28;20555;-93
2022/07/17 10:21:29;;;;;;;5.95;1.52;;;29.50;43.90;;;;;;5077004;28;20266;-91
2022/07/17 10:23:55;;;;;;;3.65;1.70;;;29.50;44.00;;;;;;5076790;28;20175;-93
2022/07/17 10:26:36;;;;;;;5.25;1.70;;;29.50;43.90;;;;;;5077218;28;20253;-92
2022/07/17 10:29:06;;;;;;;12.68;2.10;;;29.40;43.90;;;;;;5080897;28;20778;-92
2022/07/17 10:31:33;;;;;;;9.88;2.30;;;29.30;44.80;;;;;;5076867;28;20187;-91
2022/07/17 10:34:04;;;;;;;12.20;2.03;;;29.20;45.10;;;;;;5075991;28;20713;-91
2022/07/17 10:36:40;;;;;;;7.55;2.00;;;29.10;45.10;;;;;;5077221;28;20430;-91
2022/07/17 10:39:16;;;;;;;9.00;2.13;;;29.10;45.20;;;;;;5077698;28;20230;-91
2022/07/17 10:41:54;;;;;;;10.00;2.00;;;29.10;45.10;;;;;;5076283;28;20180;-91
2022/07/17 10:44:26;;;;;;;11.60;1.90;;;29.10;45.50;;;;;;5076918;28;20171;-91
2022/07/17 10:46:53;;;;;;;6.97;1.73;;;29.10;45.10;;;;;;5094216;28;20295;-91
2022/07/17 10:49:19;;;;;;;4.93;1.73;;;29.10;45.00;;;;;;5077942;28;20178;-90
2022/07/17 10:51:46;;;;;;;7.63;1.83;;;29.00;45.00;;;;;;5076943;28;20447;-91
2022/07/17 10:54:12;;;;;;;5.68;2.00;;;29.00;45.00;;;;;;5074526;28;20171;-91
2022/07/17 10:56:42;;;;;;;4.75;1.70;;;29.00;45.10;;;;;;5074862;28;20175;-91
2022/07/17 10:59:08;;;;;;;3.88;2.00;;;29.00;45.10;;;;;;5076414;28;20175;-92
2022/07/17 11:01:33;;;;;;;6.97;1.85;;;29.00;44.10;;;;;;5079656;28;20174;-93
2022/07/17 11:04:02;;;;;;;5.88;2.10;;;29.00;45.70;;;;;;5090214;28;20155;-93
2022/07/17 11:06:31;;;;;;;6.75;1.90;;;29.00;46.00;;;;;;5086045;28;20167;-94
2022/07/17 11:09:00;;;;;;;5.90;1.60;;;29.00;45.90;;;;;;5094189;28;20167;-94
2022/07/17 11:11:46;;;;;;;6.43;1.88;;;28.90;45.80;;;;;;5089971;28;20188;-93
2022/07/17 11:14:15;;;;;;;8.48;1.90;;;28.90;45.80;;;;;;5081830;28;20170;-94
2022/07/17 11:16:51;;;;;;;5.18;2.20;;;28.90;45.70;;;;;;5085433;28;20224;-94
2022/07/17 11:19:31;;;;;;;8.57;2.10;;;28.90;45.30;;;;;;5089813;28;20175;-94
2022/07/17 11:21:58;;;;;;;9.02;2.00;;;28.90;45.50;;;;;;5087869;28;20174;-94
2022/07/17 11:24:26;;;;;;;6.40;1.83;;;28.80;45.60;;;;;;5094319;28;20202;-91
2022/07/17 11:26:52;;;;;;;5.35;1.90;;;28.80;45.30;;;;;;5081419;28;20174;-93
2022/07/17 11:29:18;;;;;;;3.88;1.90;;;28.80;45.50;;;;;;5083511;28;20187;-94
2022/07/17 11:31:44;;;;;;;2.40;1.65;;;28.80;44.90;;;;;;5087669;28;20174;-93
2022/07/17 11:34:11;;;;;;;3.63;1.60;;;28.80;45.50;;;;;;5082194;28;20207;-94
2022/07/17 11:36:39;;;;;;;3.63;1.65;;;28.80;45.20;;;;;;5081411;28;20568;-92
2022/07/17 11:39:18;;;;;;;8.05;1.88;;;28.80;45.30;;;;;;5075343;28;20179;-92
2022/07/17 11:41:46;;;;;;;3.88;1.90;;;28.80;45.30;;;;;;5075148;28;20221;-91
2022/07/17 11:44:15;;;;;;;5.40;1.95;;;28.80;45.30;;;;;;5075297;28;20281;-91
2022/07/17 11:46:45;;;;;;;3.85;1.80;;;28.80;45.30;;;;;;5092492;28;20163;-91
2022/07/17 11:49:11;;;;;;;4.30;1.65;;;28.80;45.30;;;;;;5074776;28;20633;-91
2022/07/17 11:51:36;;;;;;;4.13;1.60;;;28.80;45.30;;;;;;5091686;28;20221;-92
2022/07/17 11:54:08;;;;;;;5.85;2.08;;;28.70;45.20;;;;;;5074237;28;20207;-92
2022/07/17 11:56:34;;;;;;;3.45;1.50;;;28.70;43.60;;;;;;5074664;28;20167;-93
2022/07/17 11:59:00;;;;;;;4.53;2.30;;;28.70;43.70;;;;;;5075368;28;20431;-93
2022/07/17 12:01:29;;;;;;;3.75;1.90;;;28.60;43.90;;;;;;5075399;28;20179;-92
2022/07/17 12:03:59;;;;;;;4.90;2.13;;;28.60;44.90;;;;;;5078393;28;20171;-93
2022/07/17 12:06:29;;;;;;;5.07;1.60;;;28.60;43.40;;;;;;5076232;28;20205;-93
2022/07/17 12:08:55;;;;;;;2.45;1.50;;;28.50;43.20;;;;;;5075686;28;20171;-92
2022/07/17 12:11:21;;;;;;;3.27;1.60;;;28.50;44.70;;;;;;5075146;28;20167;-92
2022/07/17 12:13:47;;;;;;;3.75;1.70;;;28.50;45.00;;;;;;5074348;28;20198;-92
2022/07/17 12:16:29;;;;;;;2.63;1.77;;;28.50;45.70;;;;;;5086083;28;20281;-92
2022/07/17 12:19:00;;;;;;;4.60;1.75;;;28.50;45.40;;;;;;5094557;28;20281;-92
2022/07/17 12:21:26;;;;;;;2.08;1.50;;;28.50;45.40;;;;;;5095086;28;20174;-92
2022/07/17 12:24:17;;;;;;;2.92;1.77;;;28.50;45.30;;;;;;5095229;28;20277;-93
2022/07/17 12:26:43;;;;;;;3.88;1.80;;;28.50;43.70;;;;;;5090813;28;20273;-92
2022/07/17 12:29:08;;;;;;;4.90;1.80;;;28.40;41.60;;;;;;5074676;28;20567;-94
2022/07/17 12:31:34;;;;;;;5.07;1.63;;;28.40;42.30;;;;;;5074992;28;20239;-93
2022/07/17 12:34:00;;;;;;;3.38;1.85;;;28.40;42.30;;;;;;5074441;28;20206;-92
2022/07/17 12:36:26;;;;;;;3.42;1.80;;;28.40;43.40;;;;;;5075037;28;20240;-94
2022/07/17 12:38:52;;;;;;;2.88;1.80;;;28.40;45.00;;;;;;5073415;28;20171;-93
2022/07/17 12:41:18;;;;;;;3.53;1.90;;;28.40;45.40;;;;;;5076123;28;20173;-93
2022/07/17 12:43:45;;;;;;;3.83;1.80;;;28.40;42.50;;;;;;5081701;28;20423;-94
2022/07/17 12:46:11;;;;;;;3.47;1.80;;;28.30;43.80;;;;;;5095294;28;20183;-94
2022/07/17 12:48:39;;;;;;;3.85;1.67;;;28.30;42.70;;;;;;5086145;28;20171;-94